Bavaria

Go HERE for most recent data if this page is not up to date.

Jump to table bottom
Date Time Temp F RH % AVG Wind Max Wind Wind Dir 24 Snow Depth
04/20 08:00 18.7 63 0 2 W - 265 0.2 58.8
04/20 07:00 17.9 68 3 5 NW - 317 0.1 58.7
04/20 06:00 17.6 70 2 4 NW - 307 0.2 58.7
04/20 05:00 16.4 63 2 3 N - 341 0.2 152.5
04/20 04:00 16.2 62 2 3 NW - 337 0.2 58.9
04/20 03:00 15.2 64 0 2 NW - 329 0.3 58.7
04/20 02:00 10.8 76 0 2 N - 338 0.2 58.4
04/20 01:00 10.6 78 1 2 NW - 333 0.2 58.3
04/20 00:00 9.8 81 1 3 NE - 41 0.0 58.4
04/19 23:00 11.0 83 1 4 NE - 31 0.0 152.5
04/19 22:00 13.2 85 0 3 NE - 36 0.1 58.4
04/19 21:00 13.1 83 0 1 NE - 34 -0.0 58.0
04/19 20:00 16.3 79 1 6 E - 82 -0.2 56.7
04/19 19:00 22.4 69 3 6 E - 108 -0.3 56.7
04/19 18:00 28.1 55 2 5 S - 171 -0.2 57.2
04/19 17:00 27.1 60 1 5 S - 189 -0.1 57.5
04/19 16:00 26.6 65 0 3 SE - 145 -0.2 57.4
04/19 15:00 20.8 66 2 5 SW - 227 -0.3 57.2
04/19 14:00 22.8 64 2 5 E - 112 -0.4 57.7
04/19 13:00 23.2 67 1 4 N - 1 -0.3 57.8
04/19 12:00 19.9 71 2 4 NE - 30 -0.2 57.7
04/19 11:00 16.4 74 0 4 SW - 203 -0.0 58.0
04/19 10:00 14.7 75 1 4 S - 166 -0.0 58.2
04/19 09:00 13.1 78 0 3 S - 159 0.0 58.4
04/19 08:00 9.4 81 0 2 SE - 152 0.2 58.6
04/19 07:00 3.5 81 0 1 NE - 35 0.0 58.4
04/19 06:00 4.8 81 0 1 NE - 33 0.0 58.4
04/19 05:00 6.1 84 0 1 NW - 336 0.0 58.5
04/19 04:00 7.3 84 0 2 N - 11 0.0 59.0
04/19 03:00 9.0 81 1 3 N - 4 0.2 59.1
04/19 02:00 8.2 83 1 2 NE - 23 0.1 59.1
04/19 01:00 9.0 83 1 2 NE - 28 0.1 59.4
04/19 00:00 10.1 80 2 4 NE - 36 0.2 59.5
.